createdAt,value
2019-05-26T00:00:14.267Z,66.04
2019-05-26T00:02:46.318Z,66.08
2019-05-26T00:05:18.235Z,66.07
2019-05-26T00:07:50.323Z,66.09
2019-05-26T00:10:22.335Z,66.10
2019-05-26T00:12:54.293Z,66.09
2019-05-26T00:15:26.390Z,66.19
2019-05-26T00:17:58.435Z,66.17
2019-05-26T00:20:30.479Z,66.15
2019-05-26T00:23:03.655Z,66.26
2019-05-26T00:25:35.765Z,66.30
2019-05-26T00:28:07.811Z,66.38
2019-05-26T00:30:39.816Z,66.41
2019-05-26T00:33:12.845Z,66.42
2019-05-26T00:35:44.919Z,66.42
2019-05-26T00:38:17.047Z,66.54
2019-05-26T00:40:49.124Z,66.53
2019-05-26T00:43:21.107Z,66.59
2019-05-26T00:45:52.937Z,66.68
2019-05-26T00:48:24.950Z,66.73
2019-05-26T00:50:56.873Z,66.70
2019-05-26T00:53:28.852Z,66.72
2019-05-26T00:56:01.049Z,66.74
2019-05-26T00:58:33.202Z,66.75
2019-05-26T01:01:05.311Z,66.83
2019-05-26T01:03:37.346Z,66.96
2019-05-26T01:06:09.492Z,67.08
2019-05-26T01:08:41.548Z,67.08
2019-05-26T01:11:13.336Z,67.19
2019-05-26T01:13:45.301Z,67.31
2019-05-26T01:16:17.307Z,67.34
2019-05-26T01:18:49.219Z,67.35
2019-05-26T01:21:21.291Z,67.42
2019-05-26T01:23:53.235Z,67.52
2019-05-26T01:26:25.319Z,67.47
2019-05-26T01:28:57.280Z,67.53
2019-05-26T01:31:29.312Z,67.71
2019-05-26T01:34:01.362Z,67.85
2019-05-26T01:36:33.452Z,67.93
2019-05-26T01:39:07.480Z,67.93
2019-05-26T01:41:39.459Z,67.83
2019-05-26T01:44:11.243Z,67.78
2019-05-26T01:46:43.101Z,67.65
2019-05-26T01:49:14.971Z,67.66
2019-05-26T01:51:47.042Z,67.69
2019-05-26T01:54:18.827Z,67.63
2019-05-26T01:56:50.817Z,67.54
2019-05-26T01:59:22.800Z,67.65
2019-05-26T02:01:58.666Z,67.76
2019-05-26T02:04:29.464Z,67.72
2019-05-26T02:07:01.646Z,67.46
2019-05-26T02:09:34.738Z,67.42
2019-05-26T02:12:06.798Z,67.38
2019-05-26T02:14:38.660Z,67.40
2019-05-26T02:17:10.801Z,67.40
2019-05-26T02:19:42.719Z,67.40
2019-05-26T02:22:14.829Z,67.34
2019-05-26T02:24:46.776Z,67.19
2019-05-26T02:27:18.657Z,67.09
2019-05-26T02:29:50.622Z,67.01
2019-05-26T02:32:22.594Z,66.96
2019-05-26T02:34:54.709Z,66.89
2019-05-26T02:37:26.663Z,66.86
2019-05-26T02:39:59.562Z,66.81
2019-05-26T02:42:31.611Z,66.88
2019-05-26T02:45:04.857Z,66.96
2019-05-26T02:47:36.700Z,66.96
2019-05-26T02:50:08.674Z,67.01
2019-05-26T02:52:40.665Z,67.06
2019-05-26T02:55:12.656Z,67.15
2019-05-26T02:57:44.715Z,67.13
2019-05-26T03:00:20.751Z,67.10
2019-05-26T03:02:52.605Z,67.18
2019-05-26T03:05:24.525Z,67.14
2019-05-26T03:07:56.725Z,67.02
2019-05-26T03:10:28.724Z,66.82
2019-05-26T03:13:00.834Z,66.66
2019-05-26T03:15:34.483Z,66.44
2019-05-26T03:18:07.038Z,66.36
2019-05-26T03:20:40.197Z,66.32
2019-05-26T03:23:12.249Z,66.24
2019-05-26T03:25:44.134Z,66.04
2019-05-26T03:28:16.057Z,65.76
2019-05-26T03:30:48.134Z,65.59
2019-05-26T03:33:19.981Z,65.46
2019-05-26T03:35:51.896Z,65.35
2019-05-26T03:38:23.899Z,65.39
2019-05-26T03:40:55.897Z,65.41
2019-05-26T03:43:27.950Z,65.40
2019-05-26T03:46:12.044Z,65.34
2019-05-26T03:48:44.057Z,65.18
2019-05-26T03:51:16.025Z,65.00
2019-05-26T03:53:48.119Z,64.96
2019-05-26T03:56:20.179Z,64.94
2019-05-26T03:58:52.093Z,64.85
2019-05-26T04:01:23.952Z,64.78
2019-05-26T04:03:55.909Z,64.84
2019-05-26T04:06:27.787Z,64.79
2019-05-26T04:08:59.724Z,64.73
2019-05-26T04:11:31.795Z,64.68
2019-05-26T04:14:04.073Z,64.73
2019-05-26T04:16:36.218Z,64.73
2019-05-26T04:19:08.233Z,64.76
2019-05-26T04:21:40.067Z,64.80
2019-05-26T04:24:12.073Z,64.79
2019-05-26T04:26:44.109Z,64.76
2019-05-26T04:29:16.219Z,64.84
2019-05-26T04:31:48.114Z,64.88
2019-05-26T04:34:20.127Z,64.94
2019-05-26T04:36:52.104Z,64.97
2019-05-26T04:39:24.182Z,65.00
2019-05-26T04:41:56.066Z,65.00
2019-05-26T04:44:28.114Z,65.07
2019-05-26T04:47:00.050Z,65.16
2019-05-26T04:49:37.004Z,65.14
2019-05-26T04:52:06.103Z,65.06
2019-05-26T04:54:37.989Z,64.95
2019-05-26T04:57:09.862Z,64.77
2019-05-26T04:59:41.694Z,64.66
2019-05-26T05:02:13.559Z,64.41
2019-05-26T05:04:45.495Z,64.24
2019-05-26T05:07:17.537Z,64.12
2019-05-26T05:09:49.494Z,63.94
2019-05-26T05:12:21.989Z,63.76
2019-05-26T05:14:53.808Z,63.58
2019-05-26T05:17:25.767Z,63.35
2019-05-26T05:19:57.939Z,63.12
2019-05-26T05:22:29.912Z,62.77
2019-05-26T05:25:01.852Z,62.63
2019-05-26T05:27:33.810Z,62.41
2019-05-26T05:30:07.459Z,62.20
2019-05-26T05:32:39.361Z,62.12
2019-05-26T05:35:11.263Z,61.91
2019-05-26T05:37:43.136Z,61.82
2019-05-26T05:40:15.087Z,61.69
2019-05-26T05:42:47.094Z,61.48
2019-05-26T05:45:18.899Z,61.26
2019-05-26T05:47:50.637Z,60.99
2019-05-26T05:50:22.408Z,60.83
2019-05-26T05:52:54.190Z,60.61
2019-05-26T05:55:25.990Z,60.22
2019-05-26T05:57:57.679Z,59.77
2019-05-26T06:00:29.628Z,59.31
2019-05-26T06:03:01.517Z,59.32
2019-05-26T06:05:33.451Z,59.41
2019-05-26T06:08:05.346Z,59.44
2019-05-26T06:10:37.330Z,58.81
2019-05-26T06:13:10.455Z,58.77
2019-05-26T06:15:42.426Z,58.73
2019-05-26T06:18:14.241Z,58.46
2019-05-26T06:20:46.127Z,58.47
2019-05-26T06:23:17.946Z,58.59
2019-05-26T06:25:49.668Z,58.44
2019-05-26T06:28:21.378Z,58.51
2019-05-26T06:30:53.205Z,58.18
2019-05-26T06:33:24.969Z,58.10
2019-05-26T06:35:56.814Z,58.00
2019-05-26T06:38:28.510Z,57.76
2019-05-26T06:41:00.303Z,57.90
2019-05-26T06:43:32.074Z,57.87
2019-05-26T06:46:03.883Z,57.75
2019-05-26T06:48:35.627Z,57.99
2019-05-26T06:51:07.502Z,57.55
2019-05-26T06:53:39.535Z,57.08
2019-05-26T06:56:11.374Z,57.00
2019-05-26T06:58:43.218Z,56.79
2019-05-26T07:01:14.923Z,56.59
2019-05-26T07:03:46.617Z,56.53
2019-05-26T07:06:18.632Z,56.48
2019-05-26T07:08:50.569Z,56.42
2019-05-26T07:11:22.378Z,55.03
2019-05-26T07:13:54.236Z,54.25
2019-05-26T07:16:37.649Z,53.60
2019-05-26T07:18:59.706Z,52.28
2019-05-26T07:21:32.678Z,51.31
2019-05-26T07:24:04.493Z,50.29
2019-05-26T07:26:36.359Z,49.14
2019-05-26T07:29:08.067Z,47.61
2019-05-26T07:31:39.926Z,46.27
2019-05-26T07:34:11.664Z,45.22
2019-05-26T07:36:43.468Z,44.86
2019-05-26T07:39:15.277Z,44.25
2019-05-26T07:41:47.005Z,43.82
2019-05-26T07:44:18.699Z,43.62
2019-05-26T07:46:50.511Z,43.05
2019-05-26T07:49:22.389Z,42.78
2019-05-26T07:51:54.211Z,42.16
2019-05-26T07:54:26.256Z,42.31
2019-05-26T07:56:58.013Z,42.23
2019-05-26T07:59:29.875Z,42.46
2019-05-26T08:02:01.671Z,42.24
2019-05-26T08:04:33.434Z,42.51
2019-05-26T08:07:05.712Z,43.03
2019-05-26T08:09:37.506Z,43.19
2019-05-26T08:12:24.574Z,43.28
2019-05-26T08:14:42.891Z,43.55
2019-05-26T08:17:14.688Z,43.60
2019-05-26T08:19:46.505Z,43.98
2019-05-26T08:22:18.254Z,44.14
2019-05-26T08:24:50.146Z,44.57
2019-05-26T08:27:21.874Z,44.54
2019-05-26T08:29:55.390Z,44.54
2019-05-26T08:32:27.102Z,44.87
2019-05-26T08:34:58.913Z,45.07
2019-05-26T08:37:30.875Z,45.09
2019-05-26T08:40:20.407Z,45.02
2019-05-26T08:42:52.388Z,44.95
2019-05-26T08:45:24.214Z,45.57
2019-05-26T08:47:55.987Z,46.15
2019-05-26T08:50:27.810Z,47.26
2019-05-26T08:52:59.652Z,48.43
2019-05-26T08:55:31.416Z,48.60
2019-05-26T08:58:03.217Z,48.50
2019-05-26T09:00:34.875Z,48.50
2019-05-26T09:03:06.819Z,48.64
2019-05-26T09:05:38.567Z,48.40
2019-05-26T09:08:10.434Z,47.66
2019-05-26T09:10:42.102Z,47.86
2019-05-26T09:13:14.045Z,48.03
2019-05-26T09:15:46.060Z,48.09
2019-05-26T09:18:17.910Z,48.15
2019-05-26T09:20:49.673Z,48.54
2019-05-26T09:23:21.762Z,49.09
2019-05-26T09:25:53.531Z,49.36
2019-05-26T09:28:25.340Z,49.43
2019-05-26T09:30:57.182Z,49.93
2019-05-26T09:33:30.068Z,50.88
2019-05-26T09:36:01.750Z,52.20
2019-05-26T09:38:33.595Z,54.21
2019-05-26T09:41:05.442Z,55.86
2019-05-26T09:43:37.245Z,56.28
2019-05-26T09:46:09.162Z,56.58
2019-05-26T09:48:41.335Z,56.92
2019-05-26T09:51:13.331Z,57.87
2019-05-26T09:53:45.076Z,58.08
2019-05-26T09:56:16.945Z,59.06
2019-05-26T09:58:48.867Z,59.91
2019-05-26T10:01:20.687Z,60.54
2019-05-26T10:03:52.534Z,61.27
2019-05-26T10:06:24.244Z,62.35
2019-05-26T10:08:56.012Z,63.00
2019-05-26T10:11:27.855Z,62.62
2019-05-26T10:13:59.927Z,62.48
2019-05-26T10:16:32.267Z,62.21
2019-05-26T10:19:04.715Z,61.17
2019-05-26T10:21:36.473Z,60.19
2019-05-26T10:24:08.500Z,59.69
2019-05-26T10:26:41.159Z,59.11
2019-05-26T10:29:12.929Z,60.08
2019-05-26T10:31:44.592Z,60.04
2019-05-26T10:34:16.553Z,58.86
2019-05-26T10:36:48.287Z,57.43
2019-05-26T10:39:20.172Z,56.87
2019-05-26T10:41:52.016Z,56.42
2019-05-26T10:44:23.973Z,56.34
2019-05-26T10:46:55.716Z,57.38
2019-05-26T10:49:27.412Z,57.38
2019-05-26T10:51:59.285Z,56.97
2019-05-26T10:54:31.194Z,55.71
2019-05-26T10:57:03.075Z,55.56
2019-05-26T10:59:34.811Z,55.29
2019-05-26T11:02:08.188Z,55.27
2019-05-26T11:04:39.997Z,54.73
2019-05-26T11:07:11.850Z,53.61
2019-05-26T11:09:43.604Z,53.02
2019-05-26T11:12:15.559Z,53.08
2019-05-26T11:14:47.624Z,52.77
2019-05-26T11:17:19.556Z,52.19
2019-05-26T11:19:51.436Z,52.18
2019-05-26T11:22:23.265Z,52.09
2019-05-26T11:24:56.134Z,52.11
2019-05-26T11:27:28.987Z,52.20
2019-05-26T11:30:00.831Z,51.69
2019-05-26T11:32:32.594Z,51.38
2019-05-26T11:35:05.322Z,51.42
2019-05-26T11:37:37.078Z,50.57
2019-05-26T11:40:08.908Z,50.14
2019-05-26T11:42:40.614Z,50.09
2019-05-26T11:45:12.561Z,50.34
2019-05-26T11:47:45.430Z,49.88
2019-05-26T11:50:17.295Z,50.13
2019-05-26T11:52:48.957Z,50.27
2019-05-26T11:55:20.873Z,50.77
2019-05-26T11:57:52.619Z,51.07
2019-05-26T12:00:24.494Z,50.73
2019-05-26T12:03:00.498Z,51.08
2019-05-26T12:05:31.637Z,50.85
2019-05-26T12:08:03.535Z,51.19
2019-05-26T12:10:35.838Z,51.74
2019-05-26T12:13:07.589Z,51.77
2019-05-26T12:15:39.677Z,50.88
2019-05-26T12:18:11.660Z,50.03
2019-05-26T12:20:43.730Z,50.18
2019-05-26T12:23:15.411Z,49.93
2019-05-26T12:25:48.748Z,49.78
2019-05-26T12:28:20.641Z,49.65
2019-05-26T12:30:52.425Z,49.22
2019-05-26T12:33:24.804Z,48.98
2019-05-26T12:35:56.977Z,49.22
2019-05-26T12:38:29.944Z,49.40
2019-05-26T12:41:01.823Z,49.39
2019-05-26T12:43:33.695Z,49.73
2019-05-26T12:46:05.695Z,49.71
2019-05-26T12:48:37.458Z,50.02
2019-05-26T12:51:09.321Z,50.33
2019-05-26T12:53:40.982Z,50.66
2019-05-26T12:56:13.010Z,51.01
2019-05-26T12:58:44.858Z,51.56
2019-05-26T13:01:16.782Z,52.52
2019-05-26T13:03:48.526Z,53.32
2019-05-26T13:06:20.316Z,53.54
2019-05-26T13:08:52.158Z,52.63
2019-05-26T13:11:24.232Z,52.71
2019-05-26T13:13:56.267Z,54.28
2019-05-26T13:16:28.135Z,55.17
2019-05-26T13:18:59.821Z,55.00
2019-05-26T13:21:31.533Z,54.05
2019-05-26T13:24:04.811Z,53.10
2019-05-26T13:26:38.308Z,52.59
2019-05-26T13:29:11.390Z,52.12
2019-05-26T13:31:43.248Z,52.24
2019-05-26T13:34:15.662Z,52.04
2019-05-26T13:36:47.470Z,51.96
2019-05-26T13:39:19.228Z,51.43
2019-05-26T13:41:50.946Z,50.93
2019-05-26T13:44:22.607Z,50.83
2019-05-26T13:46:54.420Z,50.83
2019-05-26T13:49:26.197Z,50.77
2019-05-26T13:51:58.077Z,50.92
2019-05-26T13:54:32.174Z,51.28
2019-05-26T13:57:04.075Z,51.36
2019-05-26T13:59:36.013Z,51.84
2019-05-26T14:02:08.010Z,53.36
2019-05-26T14:04:39.773Z,54.37
2019-05-26T14:07:11.638Z,55.09
2019-05-26T14:09:43.381Z,56.01
2019-05-26T14:12:15.392Z,58.65
2019-05-26T14:14:47.223Z,59.82
2019-05-26T14:17:19.200Z,61.05
2019-05-26T14:19:51.054Z,62.66
2019-05-26T14:22:22.792Z,63.33
2019-05-26T14:24:54.650Z,63.96
2019-05-26T14:27:26.433Z,63.35
2019-05-26T14:30:00.004Z,63.27
2019-05-26T14:32:32.033Z,63.86
2019-05-26T14:35:05.169Z,64.34
2019-05-26T14:37:37.051Z,64.96
2019-05-26T14:40:10.265Z,65.16
2019-05-26T14:42:42.202Z,65.85
2019-05-26T14:45:14.052Z,65.44
2019-05-26T14:47:45.918Z,65.78
2019-05-26T14:50:17.952Z,65.93
2019-05-26T14:52:49.881Z,66.17
2019-05-26T14:55:21.993Z,66.41
2019-05-26T14:57:53.904Z,66.12
2019-05-26T15:00:26.025Z,65.81
2019-05-26T15:02:58.116Z,65.62
2019-05-26T15:05:30.232Z,65.53
2019-05-26T15:08:02.374Z,65.81
2019-05-26T15:10:34.382Z,65.54
2019-05-26T15:13:06.489Z,65.14
2019-05-26T15:15:38.451Z,64.44
2019-05-26T15:18:10.449Z,63.74
2019-05-26T15:20:42.766Z,63.79
2019-05-26T15:23:14.741Z,63.94
2019-05-26T15:25:46.811Z,63.47
2019-05-26T15:28:18.708Z,62.75
2019-05-26T15:30:50.681Z,62.72
2019-05-26T15:33:22.758Z,62.54
2019-05-26T15:35:55.650Z,62.68
2019-05-26T15:38:41.997Z,62.32
2019-05-26T15:41:01.466Z,62.26
2019-05-26T15:43:33.418Z,62.97
2019-05-26T15:46:05.436Z,63.44
2019-05-26T15:48:38.532Z,63.65
2019-05-26T15:51:10.457Z,63.98
2019-05-26T15:53:42.301Z,63.41
2019-05-26T15:56:14.311Z,62.90
2019-05-26T15:58:46.300Z,62.81
2019-05-26T16:01:18.428Z,62.77
2019-05-26T16:03:50.351Z,62.27
2019-05-26T16:06:23.203Z,61.88
2019-05-26T16:08:55.035Z,61.92
2019-05-26T16:11:26.786Z,62.04
2019-05-26T16:13:59.753Z,61.84
2019-05-26T16:16:40.595Z,61.43
2019-05-26T16:19:04.997Z,60.93
2019-05-26T16:21:36.897Z,60.61
2019-05-26T16:24:09.855Z,60.34
2019-05-26T16:26:41.925Z,60.45
2019-05-26T16:29:14.920Z,60.67
2019-05-26T16:31:47.050Z,60.57
2019-05-26T16:34:18.981Z,60.70
2019-05-26T16:36:50.956Z,60.66
2019-05-26T16:39:36.082Z,60.06
2019-05-26T16:41:57.079Z,60.13
2019-05-26T16:44:29.186Z,59.85
2019-05-26T16:47:01.097Z,59.71
2019-05-26T16:49:34.233Z,60.01
2019-05-26T16:52:06.681Z,59.80
2019-05-26T16:54:38.501Z,59.52
2019-05-26T16:57:10.371Z,59.33
2019-05-26T16:59:42.571Z,59.63
2019-05-26T17:02:14.596Z,59.89
2019-05-26T17:04:46.461Z,59.49
2019-05-26T17:07:18.492Z,59.75
2019-05-26T17:09:50.584Z,59.66
2019-05-26T17:12:22.669Z,59.58
2019-05-26T17:14:54.743Z,59.29
2019-05-26T17:17:26.633Z,59.71
2019-05-26T17:19:58.755Z,59.57
2019-05-26T17:22:30.740Z,59.43
2019-05-26T17:25:02.813Z,59.05
2019-05-26T17:27:34.800Z,58.90
2019-05-26T17:30:06.967Z,58.75
2019-05-26T17:32:38.791Z,58.76
2019-05-26T17:35:11.820Z,58.58
2019-05-26T17:37:43.719Z,58.72
2019-05-26T17:40:15.829Z,58.73
2019-05-26T17:42:47.893Z,58.75
2019-05-26T17:45:20.013Z,58.68
2019-05-26T17:47:51.929Z,58.73
2019-05-26T17:50:24.679Z,58.91
2019-05-26T17:52:56.658Z,59.00
2019-05-26T17:55:28.648Z,58.72
2019-05-26T17:58:00.563Z,58.66
2019-05-26T18:00:32.602Z,58.63
2019-05-26T18:03:04.686Z,58.26
2019-05-26T18:05:36.686Z,58.09
2019-05-26T18:08:08.844Z,58.22
2019-05-26T18:10:41.240Z,58.39
2019-05-26T18:13:13.236Z,58.57
2019-05-26T18:15:45.365Z,58.53
2019-05-26T18:18:17.256Z,58.40
2019-05-26T18:20:49.351Z,58.29
2019-05-26T18:23:21.356Z,58.38
2019-05-26T18:25:53.263Z,58.56
2019-05-26T18:28:25.507Z,58.43
2019-05-26T18:30:57.552Z,58.25
2019-05-26T18:33:29.585Z,58.11
2019-05-26T18:36:01.572Z,58.04
2019-05-26T18:38:33.527Z,58.00
2019-05-26T18:41:05.506Z,58.24
2019-05-26T18:43:38.206Z,58.42
2019-05-26T18:46:10.117Z,58.21
2019-05-26T18:48:41.921Z,58.23
2019-05-26T18:51:13.966Z,58.27
2019-05-26T18:53:46.036Z,57.78
2019-05-26T18:56:17.892Z,57.42
2019-05-26T18:58:49.677Z,57.32
2019-05-26T19:01:21.612Z,57.46
2019-05-26T19:03:53.471Z,57.59
2019-05-26T19:06:25.578Z,57.59
2019-05-26T19:08:57.718Z,57.15
2019-05-26T19:11:29.681Z,57.11
2019-05-26T19:14:01.467Z,56.88
2019-05-26T19:16:33.392Z,56.52
2019-05-26T19:19:05.409Z,56.59
2019-05-26T19:21:37.382Z,56.59
2019-05-26T19:24:09.364Z,56.91
2019-05-26T19:26:41.442Z,56.66
2019-05-26T19:29:13.438Z,56.30
2019-05-26T19:31:45.666Z,55.92
2019-05-26T19:34:17.638Z,55.84
2019-05-26T19:36:49.686Z,55.44
2019-05-26T19:39:21.636Z,54.91
2019-05-26T19:41:53.727Z,54.55
2019-05-26T19:44:25.680Z,53.87
2019-05-26T19:46:57.839Z,53.53
2019-05-26T19:49:29.914Z,53.50
2019-05-26T19:52:02.004Z,53.15
2019-05-26T19:54:33.943Z,53.25
2019-05-26T19:57:05.951Z,52.88
2019-05-26T19:59:37.871Z,52.35
2019-05-26T20:02:18.337Z,52.02
2019-05-26T20:04:43.863Z,51.93
2019-05-26T20:07:16.926Z,51.69
2019-05-26T20:09:49.025Z,51.24
2019-05-26T20:12:21.110Z,51.14
2019-05-26T20:14:53.024Z,51.03
2019-05-26T20:17:25.152Z,50.99
2019-05-26T20:19:57.115Z,51.01
2019-05-26T20:22:29.413Z,51.00
2019-05-26T20:25:01.472Z,50.47
2019-05-26T20:27:33.580Z,50.31
2019-05-26T20:30:06.523Z,50.11
2019-05-26T20:32:38.358Z,49.97
2019-05-26T20:35:10.302Z,49.62
2019-05-26T20:37:42.208Z,49.17
2019-05-26T20:40:14.189Z,48.97
2019-05-26T20:42:46.259Z,48.85
2019-05-26T20:45:18.205Z,48.66
2019-05-26T20:47:50.204Z,48.53
2019-05-26T20:50:29.013Z,48.52
2019-05-26T20:52:55.825Z,48.24
2019-05-26T20:55:27.746Z,48.06
2019-05-26T20:57:59.640Z,48.14
2019-05-26T21:00:31.708Z,48.05
2019-05-26T21:03:03.733Z,48.17
2019-05-26T21:05:35.710Z,48.28
2019-05-26T21:08:07.520Z,48.17
2019-05-26T21:10:39.630Z,47.96
2019-05-26T21:13:11.592Z,48.02
2019-05-26T21:15:43.557Z,48.24
2019-05-26T21:18:15.653Z,48.11
2019-05-26T21:20:47.542Z,48.05
2019-05-26T21:23:22.619Z,48.10
2019-05-26T21:25:53.370Z,48.05
2019-05-26T21:28:25.395Z,48.20
2019-05-26T21:30:57.443Z,48.22
2019-05-26T21:33:29.441Z,48.22
2019-05-26T21:36:01.317Z,48.35
2019-05-26T21:38:33.220Z,48.46
2019-05-26T21:41:05.122Z,48.66
2019-05-26T21:43:38.154Z,48.54
2019-05-26T21:46:10.000Z,48.75
2019-05-26T21:48:41.885Z,48.76
2019-05-26T21:51:14.028Z,48.77
2019-05-26T21:53:46.073Z,48.90
2019-05-26T21:56:18.147Z,48.91
2019-05-26T21:58:50.220Z,48.98
2019-05-26T22:01:22.278Z,49.01
2019-05-26T22:03:54.440Z,49.19
2019-05-26T22:06:26.439Z,49.35
2019-05-26T22:08:58.443Z,49.37
2019-05-26T22:11:31.414Z,49.43
2019-05-26T22:14:03.427Z,49.58
2019-05-26T22:16:35.349Z,49.74
2019-05-26T22:19:07.430Z,49.88
2019-05-26T22:21:39.354Z,49.82
2019-05-26T22:24:11.318Z,49.94
2019-05-26T22:26:43.360Z,49.91
2019-05-26T22:29:15.361Z,49.97
2019-05-26T22:31:47.412Z,49.90
2019-05-26T22:34:19.465Z,50.01
2019-05-26T22:36:51.464Z,50.13
2019-05-26T22:39:23.317Z,50.31
2019-05-26T22:41:55.150Z,50.44
2019-05-26T22:44:27.069Z,50.50
2019-05-26T22:46:59.157Z,50.46
2019-05-26T22:49:31.170Z,50.37
2019-05-26T22:52:03.219Z,50.46
2019-05-26T22:54:36.217Z,50.67
2019-05-26T22:57:08.332Z,50.64
2019-05-26T22:59:40.353Z,50.62
2019-05-26T23:02:12.319Z,50.71
2019-05-26T23:04:44.462Z,50.75
2019-05-26T23:07:16.554Z,50.63
2019-05-26T23:09:48.868Z,50.75
2019-05-26T23:12:20.898Z,50.81
2019-05-26T23:14:53.075Z,50.81
2019-05-26T23:17:26.162Z,50.91
2019-05-26T23:19:58.121Z,50.80
2019-05-26T23:22:30.354Z,50.76
2019-05-26T23:25:02.356Z,50.68
2019-05-26T23:27:34.388Z,50.74
2019-05-26T23:30:09.149Z,50.85
2019-05-26T23:32:41.220Z,50.99
2019-05-26T23:35:13.275Z,50.95
2019-05-26T23:37:45.414Z,50.84
2019-05-26T23:40:17.378Z,50.83
2019-05-26T23:42:49.373Z,50.91
2019-05-26T23:45:21.474Z,50.91
2019-05-26T23:47:53.412Z,51.00
2019-05-26T23:50:25.423Z,51.05
2019-05-26T23:52:57.394Z,51.12
2019-05-26T23:55:29.415Z,51.28
2019-05-26T23:58:01.387Z,51.21
